Domov               UVHVVR             MKGP            O straneh              
ZDRAVSTVENO VARSTVO RASTLIN
  MREŽA AGROMET. POSTAJ
 ► PROGNOSTIČNA OBVESTILA
AGROMETEOROLOŠKI PODATKI -
ARSO
OBVLADOVANJE TVEGANJ ZARADI
NEUGODNIH VREMENSKIH RAZMER
  ► NARAVNE NESREČE
  ► SUŠA/MOČA
  ► NAMAKANJE
  ► ŽLED (gozdarstvo)
KARTOGRAFSKI PRIKAZI
SPLETNE POVEZAVE
PROJEKTI IN PUBLIKACIJE

AGROMETEOROLOŠKA MREŽA: VREMENSKE POSTAJE IN FENOLOŠKA OPAZOVANJA

Pregled podatkov za lokacijo Žabnica (Dorfarje), meteorološka postaja 41375

Pregled senzorjev na lokaciji

ID Ime Zadnja
vrednost
Datum in čas
zadnje
spremembe
(Lokalni čas)
Tip
senzorja
3849 Omočenost lista (U) 0 U 26.5.2019 13:00 A730WET
3846 Padavine (mm) 0 mm 26.5.2019 13:00 Generic 0.2 mm
3847 Relativna vlaga 2 m (% RH) 64.59 % RH 26.5.2019 13:00 Generic 0 - 100 %
3848 Temperatura 2 m (°C) 20.24 °C 26.5.2019 13:00 Generic -40 - +60 °C

Pregled podatkov zadnjih 24 ur

Zap.
št.
Datum in čas
(Centralno
evropski čas)
Žabnica (Dorfarje)
Omočenost
lista
Padavine Relativna
vlaga
2
m
Temperatura
2
m
1 26.5.2019 13:30
2 26.5.2019 13:00
3 26.5.2019 12:30
4 26.5.2019 12:00 0 0 64.6 20.2
5 26.5.2019 11:30 0 0 61.7 21
6 26.5.2019 11:00 0 0 63.1 21
7 26.5.2019 10:30 0 0 68.8 19.9
8 26.5.2019 10:00 0 0 72.4 18.5
9 26.5.2019 09:30 0 0 80.1 17.2
10 26.5.2019 09:00 0 0 83.4 16.2
11 26.5.2019 08:30 0 0 85.7 15.2
12 26.5.2019 08:00 0 0 90.5 14
13 26.5.2019 07:30 1 0 95.7 12.8
14 26.5.2019 07:00 6 0 98.6 11.9
15 26.5.2019 06:30 10 0 99.8 11.6
16 26.5.2019 06:00 10 0 99.9 10.9
17 26.5.2019 05:30 10 0 99.9 9.9
18 26.5.2019 05:00 10 0 99.9 10
19 26.5.2019 04:30 10 0 99.9 10.1
20 26.5.2019 04:00 10 0 99.9 9.7
21 26.5.2019 03:30 10 0 99.9 10.1
22 26.5.2019 03:00 10 0 99.9 10.5
23 26.5.2019 02:30 10 0 99.7 11.1
24 26.5.2019 02:00 10 0 99.5 11.2
25 26.5.2019 01:30 10 0 99.7 11.3
26 26.5.2019 01:00 10 0 99.9 11.1
27 26.5.2019 00:30 10 0 99.9 11
28 26.5.2019 00:00 10 0 99.9 11
29 25.5.2019 23:30 10 0 99.6 11.3
30 25.5.2019 23:00 10 0 98.7 11.5
31 25.5.2019 22:30 10 0 98.6 12.4
32 25.5.2019 22:00 10 0 98.2 12.6
33 25.5.2019 21:30 10 0 97.9 12.9
34 25.5.2019 21:00 10 0 97.2 13.1
35 25.5.2019 20:30 10 0 96.9 13.4
36 25.5.2019 20:00 10 0 95.9 13.8
37 25.5.2019 19:30 9 0 95.9 14.2
38 25.5.2019 19:00 8 0 95.6 14.5
39 25.5.2019 18:30 9 0 94.5 15
40 25.5.2019 18:00 10 0 90.5 15.3
41 25.5.2019 17:30 10 0.2 92.2 15.2
42 25.5.2019 17:00 10 0.2 93.8 15.4
43 25.5.2019 16:30 10 0.6 90.7 15.4
44 25.5.2019 16:00 8 0 90.9 16
45 25.5.2019 15:30 0 0 88.4 16.3
46 25.5.2019 15:00 6 0.2 89.3 16.3
47 25.5.2019 14:30 10 0 92.6 15.4
48 25.5.2019 14:00 10 0.6 91.7 14.9
© 2011 Ministrstvo za kmetijstvo, gozdarstvo in prehrano. Vse pravice pridržane.